x

West Santa Barbara 38 Nm West Of Santa Barbara, Ca (46054) Wave Buoy

2:50 - Wed 22nd Feb 2017 All times are PST. -8 hours from GMT.

  • Sig Wave height 8.5ft
  • Swell Direction
  • Peak Period 13s
  • Average Period 8s
  • Wind
    16mph, 18mph gusts
  • Sea Temp 55°f
  • Ar Temp 56°f
  • Sea Pressure 1022.7mb
  • West Santa Barbara  38 Nm West Of Santa Barbara, Ca
  • West Santa Barbara  38 Nm West Of Santa Barbara, Ca

More Historic Weather Station data

Upgrade to MSW Pro to gain access to the past 30 days of data for over 8000 Wavebouys and Weather Stations around the globe.

Join Pro

Comparision Forecast

View Surf forecast
   
Qua 02/22 2:50 8.5ft 13s 8s 16 18 mph 1022.7mb 55f 56f
1:50 9.5ft 12s 9s 13 16 mph 1023mb 56f 56f
12:50 9ft 12s 9s 13 16 mph 1023.8mb 56f 56f
Ter 02/21 11:50 9ft 12s 8s 11 13 mph 1024.3mb 56f 56f
10:50 9.5ft 11s 9s 7 9 mph 1024.8mb 56f 56f
9:50 8ft 11s 8s 4 7 mph 1024.8mb 56f 56f
8:50 9ft 12s 8s 2 7 mph 1024.8mb 56f 56f
7:50 8.5ft 11s 9s 2 4 mph 1024.4mb 56f 55f
6:50 9ft 11s 9s 2 4 mph 1024.1mb 57f 55f
5:50 9ft 11s 9s 4 7 mph 1024.1mb 57f 55f
4:50 9ft 11s 9s  -  2 mph 1024.2mb 57f 56f
3:50 9ft 11s 9s 2 4 mph 1024.5mb 57f 56f
2:50 9.5ft 12s 9s 7 9 mph 1024.6mb 57f 57f
1:50 9ft 11s 9s 2 4 mph 1024.9mb 56f 57f
12:50 8ft 13s 9s 2 4 mph 1025.5mb 56f 57f
11:50 9ft 13s 9s 2
mph
1026mb 56f 57f
10:50 8ft 12s 9s 4
mph
1026.5mb 56f 57f
9:50 8ft 13s 9s 4
mph
1026.3mb 56f 57f
8:50 7ft 13s 8s 4 7 mph 1026mb 56f 57f
7:50 8.5ft 13s 9s 4 7 mph 1025.4mb 56f 57f
6:50 9ft 14s 9s 7 9 mph 1024.9mb 56f 57f
5:50 7.5ft 13s 8s 7 9 mph 1024.2mb 56f 57f
4:50 8.5ft 12s 8s 9 13 mph 1024mb 56f 57f
3:50 7.5ft 13s 8s 9 11 mph 1024.2mb 56f 57f
2:50 8.5ft 13s 8s 11 13 mph 1024.5mb 56f 57f
1:50 9ft 15s 8s 11 13 mph 1024.9mb 56f 57f
12:50 10ft 15s 8s 13 16 mph 1025.1mb 56f 57f
Seg 02/20 11:50 10ft 15s 8s 16 18 mph 1024.7mb 56f 57f
10:50 9ft 13s 8s 13 16 mph 1024.6mb 56f 57f
9:50 10ft 15s 9s 11 16 mph 1024.8mb 55f 57f
8:50 9ft 11s 8s 11 16 mph 1024.6mb 55f 58f
7:50 11ft 15s 9s 18 22 mph 1023.4mb 55f 58f
6:50 9.5ft 16s 8s 13 16 mph 1023.6mb 55f 57f
5:50 9.5ft 15s 8s 16 22 mph 1023.3mb 56f 57f
4:50 10ft 16s 8s 18 25 mph 1022.5mb 56f 56f
3:50 9.5ft 16s 8s 16 20 mph 1023.2mb 56f 56f
2:50 10.5ft 16s 8s 16 20 mph 1022.5mb 56f 56f
1:50 9ft 16s 7s 20 25 mph 1022mb 55f 56f
12:50 10ft 16s 8s 22 29 mph 1021.7mb 55f 56f
11:50 9.5ft 16s 7s 22 29 mph 1022.3mb 55f 55f
10:50 9ft 16s 7s 22 27 mph 1022.7mb 55f 56f
9:50 8ft 17s 7s 22 29 mph 1021.9mb 55f 56f
8:50 8ft 13s 7s 22 27 mph 1021.5mb 55f 55f
7:50 7.5ft 13s 7s 20 29 mph 1021mb 55f 55f
6:50 8.5ft 13s 7s 20 27 mph 1020.3mb 55f 55f
5:50 8.5ft 13s 7s 20 27 mph 1019.9mb 55f 55f
4:50 8ft 10s 6s 22 29 mph 1019.5mb 55f 55f
3:50 8.5ft 11s 6s 25 29 mph 1018.7mb 55f 54f
2:50 8ft 11s 6s 25 31 mph 1019mb 55f 54f
1:50 8ft 11s 7s 25 29 mph 1019.1mb 55f 54f
12:50 7ft 13s 6s 25 31 mph 1018.8mb 56f 54f
Dom 02/19 11:50 7ft 11s 7s 25 29 mph 1019.1mb 56f 53f
10:50 7ft 13s 6s 18 22 mph 1019.6mb 56f 53f
9:50 7ft 13s 7s 22 29 mph 1018.6mb 56f 53f
8:50 6.5ft 13s 7s 22 27 mph 1018mb 56f 53f
7:50 6ft 11s 7s 20 25 mph 1017.3mb 56f 52f
6:50 8ft 12s 9s 18 22 mph 1016.7mb 56f 52f
5:50 7ft 12s 9s 13 16 mph 1016.4mb 56f 52f
4:50 8ft 12s 9s 9 13 mph 1016mb 56f 55f
3:50 9ft 12s 9s 4 7 mph 1015.6mb 56f 55f
2:50 10ft 12s 9s 4 7 mph 1015mb 56f 55f
1:50 9.5ft 13s 9s 7 9 mph 1014.8mb 57f 55f
12:50 10ft 12s 8s 7 9 mph 1015.4mb 57f 55f
11:50 11.5ft 13s 9s 7 11 mph 1015.5mb 56f 55f
10:50 11ft 13s 8s 9 11 mph 1015.5mb 56f 55f
9:50 11.5ft 12s 9s 11 13 mph 1014.7mb 56f 55f
8:50 12.5ft 12s 9s 16 18 mph 1014.2mb 56f 55f
7:50 12ft 11s 9s 16 20 mph 1012.8mb 55f 54f
6:50 13.5ft 12s 9s 18 20 mph 1011.6mb 55f 54f
5:50 13.5ft 13s 9s 25 31 mph 1010.9mb 55f 55f
4:50 12.5ft 12s 8s 22 27 mph 1010.3mb 55f 55f
3:50 12ft 13s 8s 27 31 mph 1009.9mb 56f 55f
2:50 15.5ft 13s 9s 22 29 mph 1009.9mb 56f 55f